Time;durP1;ratioP1;P1;durP2;ratioP2;P2;SDS_P1;SDS_P2;PMS_P1;PMS_P2;Temp;Humidity;BMP_temperature;BMP_pressure;BME280_temperature;BME280_humidity;BME280_pressure;Samples;Min_cycle;Max_cycle;Signal;HPM_P1;HPM_P2
2023/03/05 00:01:34;;;;;;;19.10;8.17;;;;;;;3.61;nan;-23917.13;5010754;28;20718;-73
2023/03/05 00:04:01;;;;;;;19.13;9.53;;;;;;;3.23;nan;-23906.44;5027119;28;20658;-73
2023/03/05 00:06:28;;;;;;;15.17;8.80;;;;;;;3.21;nan;-23905.84;5010006;28;20218;-72
2023/03/05 00:08:55;;;;;;;15.00;7.53;;;;;;;3.47;nan;-23913.25;5011117;28;20176;-73
2023/03/05 00:11:21;;;;;;;18.10;10.03;;;;;;;3.42;nan;-23911.69;5012884;28;20187;-73
2023/03/05 00:13:49;;;;;;;16.00;9.23;;;;;;;3.34;nan;-23909.41;5012491;28;20176;-73
2023/03/05 00:16:15;;;;;;;15.63;7.40;;;;;;;3.52;nan;-23914.53;5012086;28;20183;-73
2023/03/05 00:18:41;;;;;;;16.27;8.93;;;;;;;3.52;nan;-23914.69;5012074;28;20195;-73
2023/03/05 00:21:21;;;;;;;18.73;8.87;;;;;;;3.45;nan;-23912.69;5011842;28;20247;-73
2023/03/05 00:23:49;;;;;;;17.07;7.37;;;;;;;3.43;nan;-23912.13;5011955;28;20176;-74
2023/03/05 00:26:15;;;;;;;19.30;9.77;;;;;;;2.99;nan;-23899.56;5012182;28;20255;-72
2023/03/05 00:28:40;;;;;;;24.00;10.30;;;;;;;3.27;nan;-23907.56;5010836;28;20275;-72
2023/03/05 00:31:06;;;;;;;18.83;8.10;;;;;;;3.42;nan;-23911.69;5011642;28;20187;-73
2023/03/05 00:33:31;;;;;;;14.83;8.40;;;;;;;3.21;nan;-23905.84;5012004;28;20175;-73
2023/03/05 00:36:00;;;;;;;16.50;8.93;;;;;;;3.44;nan;-23912.41;5011558;28;20247;-74
2023/03/05 00:38:25;;;;;;;13.17;8.03;;;;;;;3.25;nan;-23907.00;5010724;28;20286;-73
2023/03/05 00:40:51;;;;;;;15.47;8.23;;;;;;;3.36;nan;-23910.13;5012087;28;20208;-73
2023/03/05 00:43:16;;;;;;;14.03;8.00;;;;;;;3.35;nan;-23909.84;5011756;28;20172;-74
2023/03/05 00:45:42;;;;;;;16.40;7.73;;;;;;;3.24;nan;-23906.56;5026817;28;20182;-73
2023/03/05 00:48:08;;;;;;;14.40;8.10;;;;;;;3.42;nan;-23911.69;5043302;28;20187;-74
2023/03/05 00:50:34;;;;;;;17.20;9.93;;;;;;;3.42;nan;-23911.69;5011654;28;20172;-74
2023/03/05 00:52:59;;;;;;;13.63;7.03;;;;;;;3.29;nan;-23908.00;5011743;28;20183;-73
2023/03/05 00:55:24;;;;;;;32.00;9.13;;;;;;;2.92;nan;-23897.56;5011293;28;20265;-72
2023/03/05 00:57:50;;;;;;;12.37;6.83;;;;;;;3.21;nan;-23905.84;5011390;28;20674;-72
2023/03/05 01:00:16;;;;;;;12.67;7.90;;;;;;;2.98;nan;-23899.28;5043349;28;20181;-73
2023/03/05 01:02:41;;;;;;;16.90;8.53;;;;;;;2.92;nan;-23897.56;5042905;28;20171;-73
2023/03/05 01:05:11;;;;;;;13.77;7.30;;;;;;;3.15;nan;-23904.13;5011644;28;20183;-74
2023/03/05 01:07:36;;;;;;;19.80;8.37;;;;;;;3.24;nan;-23906.56;5012113;28;20186;-73
2023/03/05 01:10:03;;;;;;;17.23;8.53;;;;;;;2.99;nan;-23899.72;5011522;28;20176;-73
2023/03/05 01:12:28;;;;;;;17.13;7.27;;;;;;;3.20;nan;-23905.56;5012086;28;20263;-73
2023/03/05 01:14:54;;;;;;;17.23;7.73;;;;;;;3.16;nan;-23904.28;5012564;28;20194;-73
2023/03/05 01:17:19;;;;;;;13.80;7.20;;;;;;;3.29;nan;-23908.13;5027121;28;20188;-72
2023/03/05 01:19:44;;;;;;;18.17;8.73;;;;;;;2.97;nan;-23899.00;5011554;28;20590;-73
2023/03/05 01:22:10;;;;;;;15.63;8.23;;;;;;;2.92;nan;-23897.56;5011393;28;20230;-73
2023/03/05 01:24:35;;;;;;;18.27;8.87;;;;;;;3.01;nan;-23900.28;5011720;28;20212;-72
2023/03/05 01:27:01;;;;;;;16.17;9.03;;;;;;;3.09;nan;-23902.44;5015792;28;20168;-73
2023/03/05 01:29:27;;;;;;;16.87;9.20;;;;;;;2.84;nan;-23895.28;5020114;28;20168;-72
2023/03/05 01:31:52;;;;;;;18.23;9.00;;;;;;;3.37;nan;-23910.28;5019611;28;20194;-72
2023/03/05 01:34:18;;;;;;;12.23;7.33;;;;;;;3.32;nan;-23908.84;5020005;28;20731;-71
2023/03/05 01:36:43;;;;;;;17.93;8.13;;;;;;;3.14;nan;-23903.84;5019768;28;20184;-73
2023/03/05 01:39:08;;;;;;;12.07;7.73;;;;;;;2.91;nan;-23897.44;5018367;28;20282;-73
2023/03/05 01:41:34;;;;;;;18.00;8.10;;;;;;;2.97;nan;-23899.16;5050900;28;20258;-73
2023/03/05 01:44:00;;;;;;;15.27;7.83;;;;;;;3.07;nan;-23902.00;5014928;28;20247;-74
2023/03/05 01:46:37;;;;;;;12.10;8.00;;;;;;;3.05;nan;-23901.28;5014866;28;20164;-74
2023/03/05 01:49:18;;;;;;;15.90;7.63;;;;;;;3.07;nan;-23902.00;5015304;28;20170;-73
2023/03/05 01:52:10;;;;;;;17.80;7.67;;;;;;;3.45;nan;-23912.69;5013811;28;20741;-74
2023/03/05 01:54:45;;;;;;;16.57;7.57;;;;;;;3.54;nan;-23915.25;5014913;28;20216;-74
2023/03/05 01:57:16;;;;;;;14.40;7.13;;;;;;;3.41;nan;-23911.56;5014763;28;20203;-73
2023/03/05 01:59:45;;;;;;;19.27;8.03;;;;;;;3.15;nan;-23904.13;5014921;28;20208;-74
2023/03/05 02:02:12;;;;;;;14.73;9.03;;;;;;;3.33;nan;-23909.13;5014235;28;20534;-73
2023/03/05 02:04:46;;;;;;;15.93;8.43;;;;;;;3.46;nan;-23912.97;5014783;28;20374;-73
2023/03/05 02:07:13;;;;;;;17.80;7.83;;;;;;;3.21;nan;-23905.84;5014205;28;20183;-73
2023/03/05 02:09:40;;;;;;;13.70;7.93;;;;;;;3.40;nan;-23911.28;5013957;28;20230;-73
2023/03/05 02:12:07;;;;;;;11.97;7.60;;;;;;;3.03;nan;-23900.72;5029470;28;20176;-74
2023/03/05 02:14:34;;;;;;;17.50;7.93;;;;;;;3.53;nan;-23914.84;5029338;28;20269;-73
2023/03/05 02:16:59;;;;;;;13.73;8.93;;;;;;;3.63;nan;-23917.69;5014094;28;20196;-73
2023/03/05 02:19:25;;;;;;;15.03;6.57;;;;;;;3.62;nan;-23917.41;5015477;28;20792;-73
2023/03/05 02:21:51;;;;;;;18.20;9.27;;;;;;;3.56;nan;-23915.81;5013869;28;20287;-72
2023/03/05 02:24:32;;;;;;;18.53;10.30;;;;;;;3.24;nan;-23906.56;5013661;28;20268;-73
2023/03/05 02:26:58;;;;;;;17.03;7.83;;;;;;;3.63;nan;-23917.53;5014004;28;20156;-74
2023/03/05 02:29:23;;;;;;;21.73;8.63;;;;;;;3.29;nan;-23908.00;5013992;28;20186;-72
2023/03/05 02:31:48;;;;;;;13.43;7.73;;;;;;;3.38;nan;-23910.69;5013746;28;20183;-72
2023/03/05 02:34:14;;;;;;;13.27;6.97;;;;;;;3.60;nan;-23916.69;5045476;28;20222;-72
2023/03/05 02:36:39;;;;;;;16.17;8.87;;;;;;;3.34;nan;-23909.56;5006036;28;20246;-72
2023/03/05 02:39:05;;;;;;;20.10;8.97;;;;;;;3.59;nan;-23916.53;5012244;28;20303;-73
2023/03/05 02:41:30;;;;;;;15.43;8.20;;;;;;;3.65;nan;-23918.25;5012330;28;20258;-72
2023/03/05 02:43:56;;;;;;;13.17;7.57;;;;;;;3.46;nan;-23912.84;5012275;28;20188;-72
2023/03/05 02:46:22;;;;;;;12.17;7.53;;;;;;;3.50;nan;-23913.97;5012271;28;20281;-73
2023/03/05 02:48:48;;;;;;;13.53;8.40;;;;;;;3.33;nan;-23909.28;5012246;28;20191;-73
2023/03/05 02:51:14;;;;;;;13.67;7.27;;;;;;;3.71;nan;-23919.97;5012281;28;20544;-73
2023/03/05 02:53:40;;;;;;;12.23;6.13;;;;;;;3.83;nan;-23923.25;5013404;28;20393;-72
2023/03/05 02:56:05;;;;;;;15.00;7.90;;;;;;;3.68;nan;-23919.09;5012583;28;20187;-74
2023/03/05 02:58:31;;;;;;;14.83;8.37;;;;;;;3.90;nan;-23925.38;5013449;28;20674;-74
2023/03/05 03:00:56;;;;;;;12.67;7.90;;;;;;;3.75;nan;-23920.97;5014013;28;20519;-72
2023/03/05 03:03:21;;;;;;;13.40;6.00;;;;;;;3.28;nan;-23907.72;5013852;28;20187;-74
2023/03/05 03:05:47;;;;;;;13.03;7.43;;;;;;;3.54;nan;-23915.25;5012791;28;20183;-74
2023/03/05 03:08:13;;;;;;;12.97;8.30;;;;;;;3.94;nan;-23926.53;5012082;28;20249;-74
2023/03/05 03:10:39;;;;;;;18.63;8.83;;;;;;;3.96;nan;-23927.09;5030359;28;20187;-72
2023/03/05 03:13:04;;;;;;;12.63;7.83;;;;;;;3.67;nan;-23918.81;5032642;28;20177;-73
2023/03/05 03:15:30;;;;;;;19.43;8.27;;;;;;;3.69;nan;-23919.25;5032678;28;20258;-72
2023/03/05 03:17:55;;;;;;;11.07;6.60;;;;;;;3.81;nan;-23922.66;5032288;28;20203;-73
2023/03/05 03:20:21;;;;;;;12.50;7.00;;;;;;;3.73;nan;-23920.53;5044439;28;20187;-73
2023/03/05 03:22:47;;;;;;;16.37;8.77;;;;;;;3.61;nan;-23916.97;5028686;28;20229;-73
2023/03/05 03:25:14;;;;;;;16.73;8.33;;;;;;;3.85;nan;-23923.94;5012715;28;20610;-74
2023/03/05 03:27:39;;;;;;;11.70;6.70;;;;;;;3.67;nan;-23918.69;5012531;28;20254;-72
2023/03/05 03:30:06;;;;;;;16.77;8.47;;;;;;;3.77;nan;-23921.53;5012430;28;20263;-74
2023/03/05 03:32:32;;;;;;;12.67;7.37;;;;;;;3.84;nan;-23923.53;5011213;28;20566;-72
2023/03/05 03:34:58;;;;;;;13.20;7.13;;;;;;;3.87;nan;-23924.53;5012203;28;20180;-73
2023/03/05 03:37:23;;;;;;;13.63;7.70;;;;;;;3.91;nan;-23925.53;5012572;28;20187;-73
2023/03/05 03:39:49;;;;;;;8.73;6.83;;;;;;;3.77;nan;-23921.53;5009795;28;20219;-74
2023/03/05 03:42:19;;;;;;;13.93;7.50;;;;;;;4.04;nan;-23929.09;5012598;28;20177;-72
2023/03/05 03:44:44;;;;;;;19.33;8.03;;;;;;;3.92;nan;-23925.81;5012510;28;20651;-72
2023/03/05 03:47:10;;;;;;;15.90;7.80;;;;;;;3.76;nan;-23921.25;5011012;28;20211;-72
2023/03/05 03:49:35;;;;;;;18.17;8.10;;;;;;;3.85;nan;-23923.81;5027647;28;20531;-74
2023/03/05 03:52:01;;;;;;;12.60;7.33;;;;;;;3.84;nan;-23923.66;5012503;28;20175;-73
2023/03/05 03:54:26;;;;;;;10.97;7.00;;;;;;;3.84;nan;-23923.53;5012397;28;20691;-72
2023/03/05 03:56:51;;;;;;;15.40;7.50;;;;;;;4.01;nan;-23928.38;5012896;28;20274;-73
2023/03/05 03:59:17;;;;;;;17.13;8.53;;;;;;;4.07;nan;-23929.94;5012491;28;20206;-73
2023/03/05 04:01:42;;;;;;;10.47;6.93;;;;;;;3.82;nan;-23923.09;5011397;28;20259;-73
2023/03/05 04:04:10;;;;;;;11.43;7.00;;;;;;;3.84;nan;-23923.53;5012525;28;20250;-73
2023/03/05 04:06:35;;;;;;;10.20;6.10;;;;;;;3.31;nan;-23908.72;5012138;28;20555;-73
2023/03/05 04:09:01;;;;;;;15.23;8.17;;;;;;;3.64;nan;-23917.81;5012466;28;20642;-72
2023/03/05 04:11:27;;;;;;;15.87;8.10;;;;;;;3.53;nan;-23914.84;5012747;28;20176;-73
2023/03/05 04:13:52;;;;;;;11.97;7.53;;;;;;;3.30;nan;-23908.41;5010852;28;20599;-72
2023/03/05 04:16:18;;;;;;;14.03;8.00;;;;;;;3.29;nan;-23908.13;5012061;28;20176;-72
2023/03/05 04:18:44;;;;;;;12.20;7.13;;;;;;;3.19;nan;-23905.13;5011850;28;20666;-72
2023/03/05 04:21:09;;;;;;;9.10;5.50;;;;;;;3.25;nan;-23906.84;5012704;28;20565;-73
2023/03/05 04:23:35;;;;;;;12.13;5.50;;;;;;;3.29;nan;-23908.13;5012019;28;20233;-74
2023/03/05 04:26:01;;;;;;;15.60;7.47;;;;;;;3.47;nan;-23913.25;5012391;28;20658;-73
2023/03/05 04:28:26;;;;;;;11.13;4.90;;;;;;;3.60;nan;-23916.69;5012085;28;20246;-73
2023/03/05 04:30:51;;;;;;;8.80;5.30;;;;;;;3.56;nan;-23915.81;5012388;28;20176;-73
2023/03/05 04:33:17;;;;;;;11.90;7.27;;;;;;;3.45;nan;-23912.69;5011719;28;20183;-74
2023/03/05 04:35:43;;;;;;;10.40;6.13;;;;;;;3.41;nan;-23911.41;5011878;28;20603;-72
2023/03/05 04:38:09;;;;;;;9.53;6.07;;;;;;;3.44;nan;-23912.41;5011618;28;20707;-73
2023/03/05 04:40:34;;;;;;;13.20;6.17;;;;;;;3.31;nan;-23908.56;5011868;28;20184;-73
2023/03/05 04:43:00;;;;;;;12.40;6.67;;;;;;;3.11;nan;-23903.13;5012270;28;20555;-73
2023/03/05 04:45:25;;;;;;;7.23;5.00;;;;;;;3.26;nan;-23907.28;5011673;28;20172;-73
2023/03/05 04:47:51;;;;;;;11.87;7.23;;;;;;;3.02;nan;-23900.44;5011506;28;20176;-73
2023/03/05 04:50:16;;;;;;;16.57;5.20;;;;;;;2.99;nan;-23899.56;5026806;28;20635;-72
2023/03/05 04:52:43;;;;;;;11.00;5.53;;;;;;;3.31;nan;-23908.72;5011721;28;20736;-73
2023/03/05 04:55:11;;;;;;;9.07;5.93;;;;;;;3.31;nan;-23908.56;4618314;28;20804;-74
2023/03/05 04:57:37;;;;;;;10.27;5.60;;;;;;;3.21;nan;-23905.84;4445644;28;21063;-74
2023/03/05 05:00:10;;;;;;;8.07;5.63;;;;;;;3.35;nan;-23909.84;4619028;28;20271;-74
2023/03/05 05:02:36;;;;;;;15.93;5.07;;;;;;;3.16;nan;-23904.44;5011631;28;20167;-75
2023/03/05 05:05:01;;;;;;;7.87;4.27;;;;;;;3.32;nan;-23909.00;5043204;28;20172;-73
2023/03/05 05:07:28;;;;;;;8.97;5.37;;;;;;;3.17;nan;-23904.72;5011912;28;20172;-73
2023/03/05 05:09:54;;;;;;;10.40;6.20;;;;;;;3.47;nan;-23913.25;5011245;28;20242;-73
2023/03/05 05:12:19;;;;;;;7.60;5.33;;;;;;;3.54;nan;-23915.25;5011246;28;20678;-73
2023/03/05 05:14:44;;;;;;;15.20;5.87;;;;;;;3.42;nan;-23911.69;5027393;28;20555;-73
2023/03/05 05:17:10;;;;;;;9.13;4.73;;;;;;;3.37;nan;-23910.41;5014904;28;20201;-72
2023/03/05 05:19:35;;;;;;;11.80;5.70;;;;;;;3.63;nan;-23917.53;5015081;28;20211;-74
2023/03/05 05:22:01;;;;;;;12.77;6.60;;;;;;;3.45;nan;-23912.56;5046847;28;20180;-73
2023/03/05 05:24:27;;;;;;;7.93;5.17;;;;;;;3.96;nan;-23927.09;5014880;28;20179;-73
2023/03/05 05:26:55;;;;;;;8.87;4.83;;;;;;;3.57;nan;-23915.97;5015123;28;20669;-72
2023/03/05 05:29:21;;;;;;;11.60;6.07;;;;;;;3.46;nan;-23912.97;5013815;28;20172;-74
2023/03/05 05:31:47;;;;;;;8.37;4.83;;;;;;;3.61;nan;-23916.97;5031547;28;20179;-73
2023/03/05 05:34:12;;;;;;;10.10;5.50;;;;;;;3.44;nan;-23912.41;5013545;28;20734;-73
2023/03/05 05:36:38;;;;;;;7.53;5.70;;;;;;;3.48;nan;-23913.56;5014795;28;20168;-73
2023/03/05 05:39:03;;;;;;;11.20;5.97;;;;;;;3.81;nan;-23922.66;5013282;28;20207;-74
2023/03/05 05:41:29;;;;;;;7.07;4.70;;;;;;;3.73;nan;-23920.53;5015001;28;20171;-74
2023/03/05 05:43:54;;;;;;;8.30;5.07;;;;;;;3.81;nan;-23922.66;5014747;28;20545;-73
2023/03/05 05:46:21;;;;;;;11.80;6.60;;;;;;;3.65;nan;-23918.25;5023040;28;20189;-72
2023/03/05 05:48:47;;;;;;;7.80;5.63;;;;;;;3.98;nan;-23927.50;5014860;28;20182;-74
2023/03/05 05:51:15;;;;;;;12.57;5.30;;;;;;;3.75;nan;-23920.97;5014668;28;20265;-74
2023/03/05 05:53:41;;;;;;;7.77;4.73;;;;;;;3.80;nan;-23922.53;5014453;28;20236;-74
2023/03/05 05:56:09;;;;;;;9.97;5.27;;;;;;;4.39;nan;-23939.06;5014546;28;20192;-73
2023/03/05 05:58:36;;;;;;;10.87;6.03;;;;;;;3.97;nan;-23927.38;5014308;28;20342;-73
2023/03/05 06:01:10;;;;;;;12.00;4.00;;;;;;;4.26;nan;-23935.34;5014572;28;20215;-73
2023/03/05 06:03:35;;;;;;;8.23;5.17;;;;;;;4.15;nan;-23932.34;5014525;28;20167;-74
2023/03/05 06:06:00;;;;;;;10.10;5.23;;;;;;;4.38;nan;-23938.75;5013265;28;20172;-73
2023/03/05 06:08:26;;;;;;;9.77;5.47;;;;;;;4.33;nan;-23937.34;5029629;28;20184;-73
2023/03/05 06:10:55;;;;;;;10.80;6.00;;;;;;;4.62;nan;-23945.59;5029886;28;20245;-72
2023/03/05 06:13:20;;;;;;;6.73;4.77;;;;;;;4.70;nan;-23947.72;5014015;28;20274;-72
2023/03/05 06:15:56;;;;;;;9.70;4.90;;;;;;;4.82;nan;-23951.28;5029514;28;20647;-72
2023/03/05 06:18:21;;;;;;;9.20;4.57;;;;;;;4.92;nan;-23954.00;5029210;28;20286;-72
2023/03/05 06:20:53;;;;;;;8.63;4.80;;;;;;;5.24;nan;-23963.09;5029109;28;20263;-71
2023/03/05 06:23:19;;;;;;;7.83;4.87;;;;;;;5.11;nan;-23959.41;5013857;28;20200;-72
2023/03/05 06:25:44;;;;;;;11.53;5.27;;;;;;;5.43;nan;-23968.22;5029037;28;20211;-72
2023/03/05 06:28:09;;;;;;;9.80;5.90;;;;;;;5.60;nan;-23973.19;5014104;28;20214;-71
2023/03/05 06:30:35;;;;;;;10.23;5.70;;;;;;;5.82;nan;-23979.31;5014511;28;20173;-72
2023/03/05 06:33:00;;;;;;;8.43;5.23;;;;;;;5.67;nan;-23975.03;5014177;28;20176;-73
2023/03/05 06:35:26;;;;;;;8.50;4.67;;;;;;;5.73;nan;-23976.88;5014900;28;20176;-72
2023/03/05 06:37:51;;;;;;;6.23;4.30;;;;;;;6.22;nan;-23990.66;5011240;28;20180;-73
2023/03/05 06:40:17;;;;;;;11.07;6.03;;;;;;;6.61;nan;-24001.59;5012891;28;20172;-72
2023/03/05 06:42:42;;;;;;;15.67;6.83;;;;;;;6.79;nan;-24006.56;5033311;28;20183;-72
2023/03/05 06:45:09;;;;;;;10.87;5.90;;;;;;;6.63;nan;-24002.03;5033341;28;20176;-73
2023/03/05 06:47:34;;;;;;;15.17;6.77;;;;;;;6.82;nan;-24007.28;5033289;28;20186;-74
2023/03/05 06:49:59;;;;;;;15.80;6.57;;;;;;;7.22;nan;-24018.63;5033253;28;20171;-75
2023/03/05 06:52:25;;;;;;;10.93;6.13;;;;;;;7.15;nan;-24016.63;5033178;28;20190;-74
2023/03/05 06:54:51;;;;;;;14.53;6.03;;;;;;;7.39;nan;-24023.44;5032685;28;20250;-73
2023/03/05 06:57:17;;;;;;;9.67;5.63;;;;;;;7.66;nan;-24030.94;5033245;28;20596;-74
2023/03/05 06:59:42;;;;;;;11.10;6.13;;;;;;;7.82;nan;-24035.47;5032976;28;20704;-73
2023/03/05 07:02:10;;;;;;;9.93;5.87;;;;;;;8.03;nan;-24041.28;5032721;28;20171;-73
2023/03/05 07:04:36;;;;;;;10.37;5.20;;;;;;;7.82;nan;-24035.47;5032945;28;20258;-74
2023/03/05 07:07:01;;;;;;;10.07;5.87;;;;;;;8.08;nan;-24042.56;5030831;28;20266;-73
2023/03/05 07:09:27;;;;;;;12.10;5.73;;;;;;;7.62;nan;-24029.69;5030859;28;20186;-75
2023/03/05 07:11:52;;;;;;;10.83;5.17;;;;;;;8.32;nan;-24049.38;5032672;28;20267;-73
2023/03/05 07:14:17;;;;;;;7.73;4.53;;;;;;;7.52;nan;-24027.13;5030211;28;20168;-74
2023/03/05 07:16:43;;;;;;;10.87;6.03;;;;;;;8.01;nan;-24040.72;5013017;28;20232;-73
2023/03/05 07:19:09;;;;;;;14.63;6.37;;;;;;;7.66;nan;-24030.94;5012680;28;20204;-74
2023/03/05 07:21:35;;;;;;;11.40;6.10;;;;;;;7.99;nan;-24040.31;5012609;28;20180;-75
2023/03/05 07:24:02;;;;;;;11.77;5.70;;;;;;;8.26;nan;-24047.66;5012454;28;20603;-75
2023/03/05 07:26:27;;;;;;;10.03;5.67;;;;;;;8.59;nan;-24057.00;5013034;28;20229;-73
2023/03/05 07:28:53;;;;;;;10.57;6.23;;;;;;;8.52;nan;-24054.88;5012580;28;20160;-75
2023/03/05 07:31:21;;;;;;;9.30;5.13;;;;;;;8.83;nan;-24063.81;5011466;28;20179;-75
2023/03/05 07:33:49;;;;;;;12.87;6.17;;;;;;;8.86;nan;-24064.66;5012881;28;20172;-74
2023/03/05 07:36:15;;;;;;;13.50;7.00;;;;;;;9.25;nan;-24075.41;5012367;28;20176;-75
2023/03/05 07:38:41;;;;;;;7.40;5.30;;;;;;;9.38;nan;-24079.06;5012635;28;20274;-74
2023/03/05 07:41:09;;;;;;;12.25;6.35;;;;;;;9.64;nan;-24086.44;5011409;28;20283;-72
2023/03/05 07:43:35;;;;;;;10.23;5.88;;;;;;;9.73;nan;-24088.97;5011633;28;20175;-74
2023/03/05 07:46:10;;;;;;;10.93;5.72;;;;;;;10.16;nan;-24100.97;5010870;28;20188;-73
2023/03/05 07:48:35;;;;;;;10.20;5.75;;;;;;;10.53;nan;-24111.13;5027267;28;20227;-74
2023/03/05 07:51:01;;;;;;;11.45;6.03;;;;;;;10.71;nan;-24116.06;5012237;28;20176;-73
2023/03/05 07:53:26;;;;;;;12.30;6.13;;;;;;;10.64;nan;-24114.25;5010767;28;20192;-73
2023/03/05 07:55:52;;;;;;;13.25;5.45;;;;;;;10.68;nan;-24115.38;5012171;28;20629;-74
2023/03/05 07:58:17;;;;;;;10.82;6.03;;;;;;;11.21;nan;-24130.19;5011977;28;20199;-73
2023/03/05 08:00:43;;;;;;;14.23;6.47;;;;;;;11.51;nan;-24138.63;5011807;28;20172;-73
2023/03/05 08:03:08;;;;;;;9.60;5.75;;;;;;;11.88;nan;-24148.78;5010715;28;20593;-74
2023/03/05 08:05:34;;;;;;;13.02;6.35;;;;;;;12.25;nan;-24159.19;5011866;28;20215;-72
2023/03/05 08:07:59;;;;;;;10.30;5.63;;;;;;;12.19;nan;-24157.38;5010388;28;20194;-73
2023/03/05 08:10:25;;;;;;;13.18;6.70;;;;;;;12.04;nan;-24153.28;5011814;28;20171;-73
2023/03/05 08:12:50;;;;;;;14.45;6.47;;;;;;;11.80;nan;-24146.66;5012096;28;20214;-73
2023/03/05 08:15:16;;;;;;;16.83;5.40;;;;;;;11.69;nan;-24143.41;5010788;28;20168;-74
2023/03/05 08:17:41;;;;;;;8.82;5.68;;;;;;;11.98;nan;-24151.59;5010796;28;20176;-74
2023/03/05 08:20:10;;;;;;;13.65;6.90;;;;;;;11.62;nan;-24141.59;5011827;28;20302;-74
2023/03/05 08:22:36;;;;;;;10.15;6.35;;;;;;;11.06;nan;-24126.09;5012011;28;20165;-73
2023/03/05 08:25:03;;;;;;;14.30;6.15;;;;;;;10.97;nan;-24123.41;5011458;28;20164;-73
2023/03/05 08:27:28;;;;;;;11.15;6.60;;;;;;;11.22;nan;-24130.47;5012182;28;20186;-74
2023/03/05 08:29:54;;;;;;;19.17;7.63;;;;;;;11.19;nan;-24129.47;5011843;28;20264;-74
2023/03/05 08:32:20;;;;;;;14.43;6.68;;;;;;;11.03;nan;-24125.09;5011687;28;20180;-73
2023/03/05 08:34:45;;;;;;;8.57;5.72;;;;;;;10.71;nan;-24116.06;5010136;28;20267;-74
2023/03/05 08:37:11;;;;;;;8.95;6.07;;;;;;;11.03;nan;-24125.25;5011263;28;20603;-73
2023/03/05 08:39:36;;;;;;;12.13;6.32;;;;;;;11.00;nan;-24124.25;5012214;28;20246;-75
2023/03/05 08:42:03;;;;;;;13.57;6.75;;;;;;;11.29;nan;-24132.44;5011861;28;20239;-74
2023/03/05 08:44:28;;;;;;;15.60;6.18;;;;;;;11.39;nan;-24135.09;5011924;28;20231;-75
2023/03/05 08:46:54;;;;;;;15.48;7.28;;;;;;;11.50;nan;-24138.22;5012012;28;20694;-74
2023/03/05 08:49:19;;;;;;;14.43;6.43;;;;;;;11.56;nan;-24139.91;5010103;28;20198;-75
2023/03/05 08:51:45;;;;;;;13.45;6.82;;;;;;;11.45;nan;-24136.94;5015369;28;20581;-73
2023/03/05 08:54:10;;;;;;;12.32;6.35;;;;;;;11.81;nan;-24146.94;5015306;28;20227;-72
2023/03/05 08:56:36;;;;;;;16.00;7.88;;;;;;;11.99;nan;-24151.88;5015629;28;20226;-73
2023/03/05 08:59:03;;;;;;;19.33;7.30;;;;;;;11.74;nan;-24144.84;5015342;28;20200;-72
2023/03/05 09:01:30;;;;;;;13.18;6.95;;;;;;;11.95;nan;-24150.75;5015158;28;20168;-73
2023/03/05 09:03:57;;;;;;;16.00;7.47;;;;;;;12.04;nan;-24153.28;5015278;28;20249;-74
2023/03/05 09:06:23;;;;;;;16.25;7.88;;;;;;;11.72;nan;-24144.25;5015489;28;20230;-73
2023/03/05 09:08:49;;;;;;;15.82;8.05;;;;;;;12.03;nan;-24152.84;5015105;28;20578;-73
2023/03/05 09:11:14;;;;;;;11.90;6.93;;;;;;;12.02;nan;-24152.72;5030499;28;20172;-73
2023/03/05 09:13:39;;;;;;;15.07;7.30;;;;;;;11.89;nan;-24149.06;5014886;28;20180;-73
2023/03/05 09:16:07;;;;;;;12.60;5.80;;;;;;;11.69;nan;-24143.56;5015576;28;20536;-74
2023/03/05 09:18:35;;;;;;;12.02;5.95;;;;;;;11.67;nan;-24142.84;5014514;28;20261;-72
2023/03/05 09:21:04;;;;;;;12.43;7.05;;;;;;;11.78;nan;-24145.97;5013780;28;20693;-74
2023/03/05 09:23:29;;;;;;;14.68;6.32;;;;;;;11.52;nan;-24138.78;5014885;28;20227;-74
2023/03/05 09:25:55;;;;;;;13.60;6.65;;;;;;;11.55;nan;-24139.47;5015185;28;20216;-73
2023/03/05 09:28:20;;;;;;;11.98;6.40;;;;;;;11.71;nan;-24143.97;5013416;28;20184;-74
2023/03/05 09:30:46;;;;;;;15.85;6.82;;;;;;;11.55;nan;-24139.47;5013216;28;20176;-73
2023/03/05 09:33:11;;;;;;;14.90;6.50;;;;;;;11.65;nan;-24142.44;5013557;28;20281;-73
2023/03/05 09:35:37;;;;;;;14.43;7.22;;;;;;;11.89;nan;-24149.06;5014779;28;20609;-74
2023/03/05 09:38:03;;;;;;;16.30;6.75;;;;;;;12.12;nan;-24155.38;5021121;28;20601;-73
2023/03/05 09:40:54;;;;;;;15.10;5.80;;;;;;;12.17;nan;-24156.78;5017945;28;20180;-74
2023/03/05 09:43:22;;;;;;;11.68;5.63;;;;;;;12.30;nan;-24160.59;5016222;28;20263;-73
2023/03/05 09:46:16;;;;;;;11.55;6.50;;;;;;;12.60;nan;-24168.91;5013268;28;20183;-75
2023/03/05 09:48:47;;;;;;;12.93;7.28;;;;;;;12.83;nan;-24175.22;5014517;28;20314;-74
2023/03/05 09:51:19;;;;;;;9.60;5.68;;;;;;;13.13;nan;-24183.66;5014174;28;20179;-74
2023/03/05 09:53:58;;;;;;;10.05;5.72;;;;;;;12.74;nan;-24172.84;5010255;28;20235;-73
2023/03/05 09:56:34;;;;;;;15.75;7.03;;;;;;;12.99;nan;-24179.72;5012133;28;20724;-74
2023/03/05 09:59:18;;;;;;;11.45;5.35;;;;;;;13.45;nan;-24192.53;5014172;28;20213;-73
2023/03/05 10:01:45;;;;;;;12.68;6.13;;;;;;;13.74;nan;-24200.53;5013919;28;20734;-74
2023/03/05 10:04:20;;;;;;;12.68;6.78;;;;;;;13.78;nan;-24201.63;5014131;28;20674;-73
2023/03/05 10:06:51;;;;;;;15.50;6.07;;;;;;;13.76;nan;-24201.09;4903446;28;20670;-72
2023/03/05 10:09:42;;;;;;;10.90;6.10;;;;;;;13.90;nan;-24205.00;5014251;28;20180;-73
2023/03/05 10:12:37;;;;;;;10.52;5.47;;;;;;;13.42;nan;-24191.66;5014072;28;20176;-73
2023/03/05 10:15:12;;;;;;;14.82;5.75;;;;;;;13.38;nan;-24190.41;5013917;28;20218;-73
2023/03/05 10:17:49;;;;;;;17.48;6.70;;;;;;;13.33;nan;-24189.16;5028961;28;20175;-74
2023/03/05 10:20:39;;;;;;;14.13;6.43;;;;;;;13.20;nan;-24185.63;5014345;28;20175;-71
2023/03/05 10:23:07;;;;;;;9.48;5.40;;;;;;;13.46;nan;-24192.78;5015609;28;20647;-73
2023/03/05 10:25:52;;;;;;;9.77;5.38;;;;;;;13.41;nan;-24191.38;5018005;28;20190;-71
2023/03/05 10:28:42;;;;;;;8.70;4.97;;;;;;;13.49;nan;-24193.50;5014083;28;20184;-67
2023/03/05 10:31:34;;;;;;;13.88;6.15;;;;;;;13.56;nan;-24195.59;5013802;28;20172;-66
2023/03/05 10:34:11;;;;;;;11.93;6.32;;;;;;;13.24;nan;-24186.75;5012623;28;20227;-67
2023/03/05 10:37:02;;;;;;;10.77;5.50;;;;;;;13.54;nan;-24195.03;5012788;28;20183;-67
2023/03/05 10:39:50;;;;;;;11.60;5.60;;;;;;;13.17;nan;-24184.66;5013252;28;20282;-68
2023/03/05 10:42:34;;;;;;;18.10;6.40;;;;;;;13.44;nan;-24192.09;5012861;28;20254;-68
2023/03/05 10:45:11;;;;;;;12.63;5.85;;;;;;;13.50;nan;-24193.78;5013252;28;20255;-67
2023/03/05 10:47:54;;;;;;;13.48;6.35;;;;;;;13.68;nan;-24198.84;5013641;28;20172;-67
2023/03/05 10:50:22;;;;;;;10.63;5.53;;;;;;;13.65;nan;-24198.13;5013348;28;20195;-68
2023/03/05 10:52:58;;;;;;;13.27;7.03;;;;;;;14.13;nan;-24211.47;5013527;28;20211;-67
2023/03/05 10:55:24;;;;;;;12.95;6.32;;;;;;;14.24;nan;-24214.28;5013805;28;20263;-66
2023/03/05 10:57:49;;;;;;;11.50;5.18;;;;;;;13.91;nan;-24205.28;5014052;28;20710;-67
2023/03/05 11:00:27;;;;;;;12.07;5.90;;;;;;;14.23;nan;-24214.00;5012338;28;20211;-68
2023/03/05 11:02:58;;;;;;;10.43;5.22;;;;;;;14.26;nan;-24214.97;5013791;28;20168;-67
2023/03/05 11:05:36;;;;;;;12.48;5.10;;;;;;;14.53;nan;-24222.41;5013264;28;20170;-67
2023/03/05 11:08:23;;;;;;;13.05;6.53;;;;;;;14.33;nan;-24216.81;5013466;28;20243;-67
2023/03/05 11:11:08;;;;;;;12.40;5.75;;;;;;;14.37;nan;-24217.94;5012950;28;20183;-67
2023/03/05 11:13:37;;;;;;;10.32;5.90;;;;;;;14.34;nan;-24217.06;5012109;28;20262;-67
2023/03/05 11:16:05;;;;;;;11.52;6.10;;;;;;;14.19;nan;-24212.88;5013261;28;20170;-67
2023/03/05 11:18:35;;;;;;;12.35;5.18;;;;;;;14.09;nan;-24210.19;5013181;28;20303;-67
2023/03/05 11:21:29;;;;;;;10.02;4.75;;;;;;;14.16;nan;-24212.16;5013352;28;20271;-67
2023/03/05 11:24:24;;;;;;;10.80;4.82;;;;;;;14.86;nan;-24231.66;5013072;28;20198;-67
2023/03/05 11:26:52;;;;;;;11.43;4.90;;;;;;;14.55;nan;-24222.97;5016270;28;20199;-67
2023/03/05 11:29:24;;;;;;;10.52;4.72;;;;;;;15.16;nan;-24239.78;5012825;28;20267;-67
2023/03/05 11:31:50;;;;;;;14.27;5.78;;;;;;;15.63;nan;-24252.94;5012876;28;20163;-67
2023/03/05 11:34:15;;;;;;;13.63;5.00;;;;;;;15.73;nan;-24255.75;5012563;28;20184;-68
2023/03/05 11:37:02;;;;;;;10.07;5.47;;;;;;;16.11;nan;-24266.09;5012579;28;20238;-68
2023/03/05 11:39:31;;;;;;;9.98;5.47;;;;;;;15.76;nan;-24256.47;5012685;28;20219;-69
2023/03/05 11:42:13;;;;;;;10.77;4.80;;;;;;;15.84;nan;-24258.69;5004420;28;20208;-68
2023/03/05 11:44:51;;;;;;;9.05;4.85;;;;;;;15.47;nan;-24248.47;5000114;28;20280;-67
2023/03/05 11:47:31;;;;;;;7.80;4.80;;;;;;;15.03;nan;-24236.28;5002735;28;20184;-67